This is the latest recevied weather packets stored in our database for station/object K5FEP. If no packets are shown the sender has not sent any weather packets the latest 10 day(s).
| Time | Temp. | Humidity | Pressure | Rain* | Wind** | Luminosity | Snow |
|---|---|---|---|---|---|---|---|
| 1777851433 | 15.56° C | 38% | 1014.7 hPa | 0 mm | - | 21 W/m² | - |
| 1777851128 | 15.56° C | 37% | 1014.8 hPa | 0 mm | - | 24 W/m² | - |
| 1777850825 | 16.11° C | 36% | 1014.6 hPa | 0 mm | - | 27 W/m² | - |
| 1777850523 | 16.67° C | 35% | 1014.9 hPa | 0 mm | - | 29 W/m² | - |
| 1777850221 | 16.67° C | 35% | 1014.7 hPa | 0 mm | - | 31 W/m² | - |
| 1777849917 | 17.22° C | 33% | 1014.7 hPa | 0 mm | - | 33 W/m² | - |
| 1777849614 | 17.78° C | 31% | 1014.9 hPa | 0 mm | - | 36 W/m² | - |
| 1777849311 | 17.78° C | 31% | 1014.8 hPa | 0 mm | - | 42 W/m² | - |
| 1777849008 | 18.33° C | 26% | 1014.8 hPa | 0 mm | - | 52 W/m² | - |
| 1777848708 | 18.89° C | 27% | 1014.8 hPa | 0 mm | - | 94 W/m² | - |
| 1777848406 | 18.89° C | 25% | 1014.8 hPa | 0 mm | - | 116 W/m² | - |
| 1777848103 | 18.89° C | 27% | 1015 hPa | 0 mm | - | 130 W/m² | - |
| 1777847801 | 19.44° C | 26% | 1015.3 hPa | 0 mm | - | 146 W/m² | - |
| 1777847497 | 18.89° C | 26% | 1015.1 hPa | 0 mm | - | 47 W/m² | - |
| 1777847195 | 20° C | 26% | 1014.9 hPa | 0 mm | - | 179 W/m² | - |
| 1777846892 | 18.89° C | 26% | 1015 hPa | 0 mm | - | 49 W/m² | - |
| 1777846591 | 18.89° C | 25% | 1015.1 hPa | 0 mm | - | 215 W/m² | - |
| 1777846288 | 18.89° C | 25% | 1015.3 hPa | 0 mm | - | 233 W/m² | - |
| 1777845984 | 18.89° C | 25% | 1015.2 hPa | 0 mm | - | 252 W/m² | - |
| 1777845681 | 18.89° C | 28% | 1015.2 hPa | 0 mm | - | 270 W/m² | - |
| 1777845378 | 18.89° C | 27% | 1015.2 hPa | 0 mm | - | 290 W/m² | - |
| 1777845074 | 18.89° C | 26% | 1015.1 hPa | 0 mm | - | 310 W/m² | - |
| 1777844773 | 18.89° C | 25% | 1015.2 hPa | 0 mm | - | 328 W/m² | - |
| 1777844469 | 18.33° C | 26% | 1015.3 hPa | 0 mm | - | 347 W/m² | - |
| 1777844168 | 18.89° C | 27% | 1015.3 hPa | 0 mm | - | 370 W/m² | - |
* Rain latest hour (hover to see other rain measurements)
** Current wind speed in m/s (hover to see current wind gust speed)